createdAt,value
2023-01-26T00:02:24.814Z,-4.88
2023-01-26T00:04:57.793Z,-4.90
2023-01-26T00:07:31.144Z,-4.93
2023-01-26T00:10:04.649Z,-4.93
2023-01-26T00:12:38.660Z,-4.95
2023-01-26T00:15:11.611Z,-4.95
2023-01-26T00:17:45.002Z,-4.96
2023-01-26T00:20:18.435Z,-4.98
2023-01-26T00:22:51.225Z,-4.99
2023-01-26T00:25:24.285Z,-4.99
2023-01-26T00:27:57.963Z,-5.02
2023-01-26T00:30:30.929Z,-5.03
2023-01-26T00:33:04.470Z,-5.05
2023-01-26T00:35:38.599Z,-5.07
2023-01-26T00:38:12.790Z,-5.08
2023-01-26T00:40:46.786Z,-5.09
2023-01-26T00:43:19.703Z,-5.11
2023-01-26T00:45:52.474Z,-5.11
2023-01-26T00:48:27.089Z,-5.12
2023-01-26T00:51:00.386Z,-5.12
2023-01-26T00:53:33.479Z,-5.14
2023-01-26T00:56:06.978Z,-5.16
2023-01-26T00:58:40.836Z,-5.18
2023-01-26T01:01:13.778Z,-5.21
2023-01-26T01:03:48.127Z,-5.23
2023-01-26T01:06:21.458Z,-5.28
2023-01-26T01:08:55.938Z,-5.31
2023-01-26T01:11:28.927Z,-5.33
2023-01-26T01:14:02.464Z,-5.33
2023-01-26T01:16:35.427Z,-5.33
2023-01-26T01:19:08.603Z,-5.35
2023-01-26T01:21:41.995Z,-5.35
2023-01-26T01:24:16.036Z,-5.36
2023-01-26T01:26:48.791Z,-5.38
2023-01-26T01:29:21.583Z,-5.39
2023-01-26T01:31:55.121Z,-5.41
2023-01-26T01:34:28.301Z,-5.46
2023-01-26T01:37:01.815Z,-5.50
2023-01-26T01:39:35.835Z,-5.53
2023-01-26T01:42:08.932Z,-5.54
2023-01-26T01:44:43.837Z,-5.58
2023-01-26T01:47:21.736Z,-5.63
2023-01-26T01:49:55.497Z,-5.66
2023-01-26T01:52:31.665Z,-5.67
2023-01-26T01:55:11.121Z,-5.69
2023-01-26T01:57:56.623Z,-5.70
2023-01-26T02:00:29.568Z,-5.72
2023-01-26T02:03:14.177Z,-5.71
2023-01-26T02:05:56.873Z,-5.71
2023-01-26T02:08:44.832Z,-5.71
2023-01-26T02:11:33.392Z,-5.71
2023-01-26T02:14:09.832Z,-5.76
2023-01-26T02:16:43.204Z,-5.81
2023-01-26T02:19:26.862Z,-5.82
2023-01-26T02:22:02.751Z,-5.79
2023-01-26T02:24:38.437Z,-5.79
2023-01-26T02:27:11.265Z,-5.78
2023-01-26T02:29:44.529Z,-5.77
2023-01-26T02:32:17.926Z,-5.82
2023-01-26T02:34:58.102Z,-5.89
2023-01-26T02:37:30.896Z,-5.94
2023-01-26T02:40:14.515Z,-5.99
2023-01-26T02:42:47.314Z,-6.05
2023-01-26T02:45:20.186Z,-6.06
2023-01-26T02:47:53.166Z,-6.00
2023-01-26T02:50:26.921Z,-5.95
2023-01-26T02:53:00.531Z,-5.91
2023-01-26T02:55:34.054Z,-5.88
2023-01-26T02:58:08.356Z,-5.85
2023-01-26T03:00:42.921Z,-5.82
2023-01-26T03:03:23.172Z,-5.82
2023-01-26T03:05:56.030Z,-5.84
2023-01-26T03:08:29.461Z,-5.88
2023-01-26T03:11:02.609Z,-5.86
2023-01-26T03:13:36.096Z,-5.83
2023-01-26T03:16:12.273Z,-5.84
2023-01-26T03:18:47.098Z,-5.87
2023-01-26T03:21:38.064Z,-5.89
2023-01-26T03:24:32.119Z,-5.89
2023-01-26T03:27:25.144Z,-5.88
2023-01-26T03:29:59.410Z,-5.86
2023-01-26T03:32:32.939Z,-5.85
2023-01-26T03:35:07.458Z,-5.86
2023-01-26T03:37:41.277Z,-5.86
2023-01-26T03:40:35.067Z,-5.86
2023-01-26T03:43:28.931Z,-5.87
2023-01-26T03:46:22.760Z,-5.86
2023-01-26T03:49:13.776Z,-5.85
2023-01-26T03:52:04.620Z,-5.84
2023-01-26T03:54:56.289Z,-5.81
2023-01-26T03:57:31.476Z,-5.82
2023-01-26T04:00:05.051Z,-5.83
2023-01-26T04:02:58.425Z,-5.85
2023-01-26T04:05:50.243Z,-5.85
2023-01-26T04:08:24.691Z,-5.87
2023-01-26T04:10:59.109Z,-5.90
2023-01-26T04:13:50.768Z,-5.89
2023-01-26T04:16:43.330Z,-5.88
2023-01-26T04:19:34.207Z,-5.90
2023-01-26T04:22:07.967Z,-5.95
2023-01-26T04:24:42.637Z,-5.93
2023-01-26T04:27:15.496Z,-5.94
2023-01-26T04:29:48.965Z,-5.94
2023-01-26T04:32:22.282Z,-5.93
2023-01-26T04:34:55.921Z,-5.93
2023-01-26T04:37:29.109Z,-5.93
2023-01-26T04:40:02.279Z,-5.93
2023-01-26T04:42:36.818Z,-5.93
2023-01-26T04:45:11.976Z,-5.96
2023-01-26T04:47:44.946Z,-5.99
2023-01-26T04:50:18.509Z,-6.04
2023-01-26T04:52:51.390Z,-6.07
2023-01-26T04:55:25.652Z,-6.07
2023-01-26T04:57:58.742Z,-6.09
2023-01-26T05:00:31.748Z,-6.11
2023-01-26T05:03:08.430Z,-6.12
2023-01-26T05:05:41.662Z,-6.15
2023-01-26T05:08:14.484Z,-6.20
2023-01-26T05:10:47.562Z,-6.21
2023-01-26T05:13:25.177Z,-6.25
2023-01-26T05:16:09.270Z,-6.26
2023-01-26T05:19:00.405Z,-6.28
2023-01-26T05:21:34.820Z,-6.33
2023-01-26T05:24:08.903Z,-6.34
2023-01-26T05:27:06.800Z,-6.31
2023-01-26T05:29:40.584Z,-6.30
2023-01-26T05:32:13.463Z,-6.29
2023-01-26T05:34:47.504Z,-6.27
2023-01-26T05:37:20.813Z,-6.27
2023-01-26T05:39:53.675Z,-6.25
2023-01-26T05:42:27.735Z,-6.25
2023-01-26T05:45:06.501Z,-6.23
2023-01-26T05:47:39.724Z,-6.18
2023-01-26T05:50:13.578Z,-6.14
2023-01-26T05:52:48.017Z,-6.10
2023-01-26T05:55:21.346Z,-6.07
2023-01-26T05:57:54.902Z,-6.04
2023-01-26T06:00:28.089Z,-6.03
2023-01-26T06:03:02.589Z,-6.00
2023-01-26T06:05:36.823Z,-5.95
2023-01-26T06:08:11.420Z,-5.87
2023-01-26T06:10:52.832Z,-5.82
2023-01-26T06:13:30.571Z,-5.79
2023-01-26T06:16:08.187Z,-5.77
2023-01-26T06:18:42.818Z,-5.75
2023-01-26T06:21:15.795Z,-5.72
2023-01-26T06:23:49.150Z,-5.67
2023-01-26T06:26:22.036Z,-5.62
2023-01-26T06:28:55.502Z,-5.60
2023-01-26T06:31:30.161Z,-5.57
2023-01-26T06:34:05.835Z,-5.52
2023-01-26T06:36:41.879Z,-5.47
2023-01-26T06:39:17.422Z,-5.41
2023-01-26T06:41:50.410Z,-5.36
2023-01-26T06:44:23.406Z,-5.31
2023-01-26T06:46:56.434Z,-5.22
2023-01-26T06:49:29.335Z,-5.17
2023-01-26T06:52:31.880Z,-5.12
2023-01-26T06:55:06.879Z,-5.06
2023-01-26T06:57:56.883Z,-5.00
2023-01-26T07:00:40.020Z,-4.94
2023-01-26T07:03:24.682Z,-4.85
2023-01-26T07:05:57.726Z,-4.76
2023-01-26T07:08:31.961Z,-4.65
2023-01-26T07:11:08.901Z,-4.59
2023-01-26T07:13:42.634Z,-4.49
2023-01-26T07:16:17.708Z,-4.38
2023-01-26T07:18:51.220Z,-4.25
2023-01-26T07:21:24.373Z,-4.14
2023-01-26T07:23:59.225Z,-4.05
2023-01-26T07:26:32.055Z,-3.97
2023-01-26T07:29:04.993Z,-3.91
2023-01-26T07:31:38.101Z,-3.86
2023-01-26T07:34:15.574Z,-3.81
2023-01-26T07:36:48.851Z,-3.76
2023-01-26T07:39:23.341Z,-3.72
2023-01-26T07:41:56.844Z,-3.65
2023-01-26T07:44:40.247Z,-3.55
2023-01-26T07:47:13.095Z,-3.43
2023-01-26T07:49:47.443Z,-3.36
2023-01-26T07:52:20.726Z,-3.34
2023-01-26T07:54:53.510Z,-3.30
2023-01-26T07:57:26.906Z,-3.22
2023-01-26T08:00:00.292Z,-3.14
2023-01-26T08:02:33.823Z,-3.05
2023-01-26T08:05:07.309Z,-2.98
2023-01-26T08:07:40.215Z,-2.87
2023-01-26T08:10:14.829Z,-2.79
2023-01-26T08:12:47.838Z,-2.71
2023-01-26T08:15:20.830Z,-2.61
2023-01-26T08:17:55.246Z,-2.55
2023-01-26T08:20:28.127Z,-2.49
2023-01-26T08:23:01.475Z,-2.43
2023-01-26T08:25:35.065Z,-2.37
2023-01-26T08:28:07.951Z,-2.33
2023-01-26T08:30:41.829Z,-2.29
2023-01-26T08:33:14.914Z,-2.27
2023-01-26T08:35:47.864Z,-2.24
2023-01-26T08:38:20.632Z,-2.21
2023-01-26T08:40:56.377Z,-2.12
2023-01-26T08:43:29.916Z,-2.05
2023-01-26T08:46:02.848Z,-1.98
2023-01-26T08:48:36.478Z,-1.91
2023-01-26T08:51:10.252Z,-1.86
2023-01-26T08:53:42.982Z,-1.78
2023-01-26T08:56:15.833Z,-1.73
2023-01-26T08:58:49.201Z,-1.67
2023-01-26T09:01:22.435Z,-1.60
2023-01-26T09:03:57.257Z,-1.54
2023-01-26T09:06:32.983Z,-1.48
2023-01-26T09:09:06.541Z,-1.41
2023-01-26T09:11:40.451Z,-1.36
2023-01-26T09:14:13.632Z,-1.32
2023-01-26T09:16:46.531Z,-1.28
2023-01-26T09:19:19.749Z,-1.23
2023-01-26T09:21:56.798Z,-1.19
2023-01-26T09:24:29.740Z,-1.16
2023-01-26T09:27:02.681Z,-1.13
2023-01-26T09:29:36.106Z,-1.08
2023-01-26T09:32:08.990Z,-1.06
2023-01-26T09:34:44.817Z,-1.07
2023-01-26T09:37:17.293Z,-1.07
2023-01-26T09:39:49.999Z,-1.08
2023-01-26T09:42:39.080Z,-1.05
2023-01-26T09:45:31.732Z,-1.03
2023-01-26T09:48:54.183Z,-0.99
2023-01-26T09:51:42.764Z,-0.93
2023-01-26T09:54:23.529Z,-0.87
2023-01-26T09:56:57.892Z,-0.84
2023-01-26T09:59:41.974Z,-0.84
2023-01-26T10:02:28.666Z,-0.81
2023-01-26T10:05:04.588Z,-0.75
2023-01-26T10:07:37.986Z,-0.67
2023-01-26T10:10:30.566Z,-0.62
2023-01-26T10:13:04.991Z,-0.58
2023-01-26T10:15:39.487Z,-0.56
2023-01-26T10:18:29.461Z,-0.56
2023-01-26T10:21:04.785Z,-0.55
2023-01-26T10:23:38.801Z,-0.52
2023-01-26T10:26:20.943Z,-0.46
2023-01-26T10:28:54.951Z,-0.42
2023-01-26T10:31:32.732Z,-0.38
2023-01-26T10:34:26.212Z,-0.37
2023-01-26T10:37:22.125Z,-0.29
2023-01-26T10:40:09.194Z,-0.22
2023-01-26T10:42:44.206Z,-0.15
2023-01-26T10:45:35.124Z,-0.10
2023-01-26T10:48:28.288Z,-0.05
2023-01-26T10:51:24.410Z,0.01
2023-01-26T10:54:26.610Z,0.06
2023-01-26T10:57:24.300Z,0.09
2023-01-26T11:00:02.011Z,0.15
2023-01-26T11:02:37.817Z,0.19
2023-01-26T11:05:15.562Z,0.22
2023-01-26T11:07:55.003Z,0.27
2023-01-26T11:10:34.737Z,0.31
2023-01-26T11:13:20.545Z,0.35
2023-01-26T11:16:19.104Z,0.38
2023-01-26T11:19:09.935Z,0.43
2023-01-26T11:21:54.717Z,0.48
2023-01-26T11:24:34.994Z,0.53
2023-01-26T11:27:38.210Z,0.57
2023-01-26T11:30:44.762Z,0.62
2023-01-26T11:33:28.672Z,0.66
2023-01-26T11:36:25.611Z,0.69
2023-01-26T11:39:43.274Z,0.71
2023-01-26T11:42:38.946Z,0.75
2023-01-26T11:45:37.660Z,0.78
2023-01-26T11:48:27.192Z,0.79
2023-01-26T11:51:30.368Z,0.80
2023-01-26T11:54:38.795Z,0.82
2023-01-26T11:57:41.940Z,0.82
2023-01-26T12:00:29.990Z,0.84
2023-01-26T12:03:07.967Z,0.85
2023-01-26T12:05:47.596Z,0.88
2023-01-26T12:08:34.843Z,0.89
2023-01-26T12:11:27.614Z,0.93
2023-01-26T12:14:24.460Z,0.94
2023-01-26T12:17:27.764Z,0.95
2023-01-26T12:20:14.721Z,0.96
2023-01-26T12:22:52.189Z,0.97
2023-01-26T12:25:44.290Z,1.00
2023-01-26T12:28:24.320Z,1.02
2023-01-26T12:31:24.730Z,1.05
2023-01-26T12:34:00.064Z,1.07
2023-01-26T12:36:55.710Z,1.08
2023-01-26T12:39:47.218Z,1.09
2023-01-26T12:42:36.820Z,1.08
2023-01-26T12:45:19.930Z,1.10
2023-01-26T12:48:24.104Z,1.11
2023-01-26T12:51:01.973Z,1.11
2023-01-26T12:53:55.090Z,1.12
2023-01-26T12:56:44.531Z,1.11
2023-01-26T12:59:47.971Z,1.12
2023-01-26T13:02:31.514Z,1.11
2023-01-26T13:05:08.070Z,1.09
2023-01-26T13:07:42.591Z,1.10
2023-01-26T13:10:22.901Z,1.08
2023-01-26T13:13:21.900Z,1.06
2023-01-26T13:16:23.550Z,1.05
2023-01-26T13:18:58.932Z,1.03
2023-01-26T13:21:45.719Z,1.01
2023-01-26T13:24:23.690Z,0.98
2023-01-26T13:27:00.992Z,0.96
2023-01-26T13:29:36.281Z,0.95
2023-01-26T13:32:22.534Z,0.92
2023-01-26T13:35:05.605Z,0.88
2023-01-26T13:37:51.771Z,0.83
2023-01-26T13:40:39.027Z,0.80
2023-01-26T13:43:40.372Z,0.75
2023-01-26T13:46:29.970Z,0.70
2023-01-26T13:49:03.016Z,0.64
2023-01-26T13:51:37.643Z,0.62
2023-01-26T13:54:17.577Z,0.58
2023-01-26T13:57:08.327Z,0.52
2023-01-26T14:00:00.647Z,0.47
2023-01-26T14:02:38.976Z,0.41
2023-01-26T14:05:24.098Z,0.34
2023-01-26T14:07:57.268Z,0.28
2023-01-26T14:10:30.910Z,0.23
2023-01-26T14:13:04.846Z,0.16
2023-01-26T14:15:37.827Z,0.10
2023-01-26T14:18:15.419Z,0.04
2023-01-26T14:20:51.551Z,-0.01
2023-01-26T14:23:26.591Z,-0.06
2023-01-26T14:26:24.750Z,-0.13
2023-01-26T14:28:57.801Z,-0.20
2023-01-26T14:31:32.584Z,-0.27
2023-01-26T14:34:10.425Z,-0.32
2023-01-26T14:36:43.410Z,-0.39
2023-01-26T14:39:21.921Z,-0.44
2023-01-26T14:41:55.680Z,-0.52
2023-01-26T14:44:32.616Z,-0.56
2023-01-26T14:47:22.306Z,-0.62
2023-01-26T14:50:14.910Z,-0.68
2023-01-26T14:52:49.594Z,-0.72
2023-01-26T14:55:37.448Z,-0.77
2023-01-26T14:58:20.825Z,-0.81
2023-01-26T15:00:54.036Z,-0.86
2023-01-26T15:03:37.133Z,-0.92
2023-01-26T15:06:24.132Z,-0.95
2023-01-26T15:09:10.056Z,-0.99
2023-01-26T15:12:01.231Z,-1.03
2023-01-26T15:14:45.353Z,-1.04
2023-01-26T15:17:44.447Z,-1.05
2023-01-26T15:20:28.253Z,-1.09
2023-01-26T15:23:01.306Z,-1.12
2023-01-26T15:25:35.028Z,-1.14
2023-01-26T15:28:11.674Z,-1.17
2023-01-26T15:30:49.057Z,-1.21
2023-01-26T15:33:44.012Z,-1.22
2023-01-26T15:36:34.492Z,-1.24
2023-01-26T15:39:20.237Z,-1.25
2023-01-26T15:42:15.754Z,-1.29
2023-01-26T15:44:49.048Z,-1.31
2023-01-26T15:47:22.016Z,-1.34
2023-01-26T15:49:55.061Z,-1.36
2023-01-26T15:52:30.707Z,-1.38
2023-01-26T15:55:05.543Z,-1.39
2023-01-26T15:57:39.022Z,-1.43
2023-01-26T16:00:15.707Z,-1.47
2023-01-26T16:02:48.721Z,-1.51
2023-01-26T16:05:24.596Z,-1.56
2023-01-26T16:07:57.847Z,-1.60
2023-01-26T16:10:31.345Z,-1.64
2023-01-26T16:13:08.126Z,-1.69
2023-01-26T16:15:51.030Z,-1.72
2023-01-26T16:18:23.845Z,-1.75
2023-01-26T16:20:56.875Z,-1.77
2023-01-26T16:23:32.055Z,-1.79
2023-01-26T16:26:06.519Z,-1.84
2023-01-26T16:28:39.428Z,-1.89
2023-01-26T16:31:19.098Z,-1.93
2023-01-26T16:33:52.730Z,-1.98
2023-01-26T16:36:26.319Z,-2.03
2023-01-26T16:38:59.296Z,-2.07
2023-01-26T16:41:33.432Z,-2.10
2023-01-26T16:44:09.326Z,-2.11
2023-01-26T16:46:43.019Z,-2.14
2023-01-26T16:49:17.054Z,-2.17
2023-01-26T16:51:50.134Z,-2.16
2023-01-26T16:54:23.541Z,-2.19
2023-01-26T16:56:57.386Z,-2.19
2023-01-26T16:59:29.380Z,-2.21
2023-01-26T17:02:03.167Z,-2.22
2023-01-26T17:04:36.247Z,-2.26
2023-01-26T17:07:08.956Z,-2.30
2023-01-26T17:09:42.108Z,-2.32
2023-01-26T17:12:15.373Z,-2.34
2023-01-26T17:14:48.589Z,-2.36
2023-01-26T17:17:21.993Z,-2.38
2023-01-26T17:19:56.298Z,-2.42
2023-01-26T17:22:31.325Z,-2.43
2023-01-26T17:25:04.376Z,-2.45
2023-01-26T17:27:39.050Z,-2.49
2023-01-26T17:30:12.458Z,-2.52
2023-01-26T17:32:46.386Z,-2.58
2023-01-26T17:35:19.557Z,-2.62
2023-01-26T17:37:52.397Z,-2.67
2023-01-26T17:40:25.350Z,-2.73
2023-01-26T17:42:58.287Z,-2.77
2023-01-26T17:45:31.193Z,-2.81
2023-01-26T17:48:04.252Z,-2.87
2023-01-26T17:50:37.279Z,-2.95
2023-01-26T17:53:10.063Z,-3.01
2023-01-26T17:55:43.566Z,-3.07
2023-01-26T17:58:17.053Z,-3.12
2023-01-26T18:00:50.060Z,-3.15
2023-01-26T18:03:24.685Z,-3.22
2023-01-26T18:05:58.729Z,-3.29
2023-01-26T18:08:31.762Z,-3.34
2023-01-26T18:11:08.309Z,-3.36
2023-01-26T18:13:42.115Z,-3.35
2023-01-26T18:16:18.730Z,-3.31
2023-01-26T18:18:57.105Z,-3.23
2023-01-26T18:21:32.365Z,-3.17
2023-01-26T18:24:07.070Z,-3.12
2023-01-26T18:26:41.552Z,-3.12
2023-01-26T18:29:15.280Z,-3.08
2023-01-26T18:31:48.483Z,-3.09
2023-01-26T18:34:21.236Z,-3.08
2023-01-26T18:36:55.817Z,-3.10
2023-01-26T18:39:29.329Z,-3.10
2023-01-26T18:42:02.411Z,-3.10
2023-01-26T18:44:35.568Z,-3.08
2023-01-26T18:47:08.438Z,-3.08
2023-01-26T18:49:41.990Z,-3.08
2023-01-26T18:52:15.245Z,-3.12
2023-01-26T18:54:48.577Z,-3.19
2023-01-26T18:57:23.292Z,-3.22
2023-01-26T18:59:57.068Z,-3.19
2023-01-26T19:02:31.960Z,-3.19
2023-01-26T19:05:08.412Z,-3.24
2023-01-26T19:07:42.056Z,-3.26
2023-01-26T19:10:15.013Z,-3.30
2023-01-26T19:12:53.167Z,-3.33
2023-01-26T19:15:26.975Z,-3.31
2023-01-26T19:18:00.876Z,-3.30
2023-01-26T19:20:33.841Z,-3.28
2023-01-26T19:23:07.554Z,-3.30
2023-01-26T19:25:41.656Z,-3.31
2023-01-26T19:28:14.589Z,-3.33
2023-01-26T19:30:47.929Z,-3.35
2023-01-26T19:33:28.967Z,-3.38
2023-01-26T19:36:05.135Z,-3.40
2023-01-26T19:38:40.018Z,-3.42
2023-01-26T19:41:13.229Z,-3.41
2023-01-26T19:43:46.475Z,-3.41
2023-01-26T19:46:21.637Z,-3.43
2023-01-26T19:48:55.128Z,-3.48
2023-01-26T19:51:29.638Z,-3.53
2023-01-26T19:54:03.292Z,-3.62
2023-01-26T19:56:37.332Z,-3.73
2023-01-26T19:59:13.053Z,-3.83
2023-01-26T20:01:47.115Z,-3.92
2023-01-26T20:04:20.318Z,-3.98
2023-01-26T20:06:53.356Z,-4.10
2023-01-26T20:09:26.211Z,-4.10
2023-01-26T20:11:59.027Z,-4.12
2023-01-26T20:14:32.086Z,-4.14
2023-01-26T20:17:05.610Z,-4.16
2023-01-26T20:19:38.935Z,-4.12
2023-01-26T20:22:12.472Z,-4.07
2023-01-26T20:24:45.624Z,-4.04
2023-01-26T20:27:20.354Z,-4.03
2023-01-26T20:29:53.742Z,-4.03
2023-01-26T20:32:27.242Z,-4.05
2023-01-26T20:35:01.084Z,-4.08
2023-01-26T20:37:34.276Z,-4.11
2023-01-26T20:40:08.258Z,-4.11
2023-01-26T20:42:42.066Z,-4.09
2023-01-26T20:45:15.482Z,-4.09
2023-01-26T20:47:48.443Z,-4.15
2023-01-26T20:50:22.119Z,-4.16
2023-01-26T20:52:55.283Z,-4.16
2023-01-26T20:55:28.210Z,-4.19
2023-01-26T20:58:02.652Z,-4.20
2023-01-26T21:00:36.263Z,-4.23
2023-01-26T21:03:09.143Z,-4.29
2023-01-26T21:05:42.412Z,-4.32
2023-01-26T21:08:15.149Z,-4.32
2023-01-26T21:10:48.429Z,-4.36
2023-01-26T21:13:22.862Z,-4.36
2023-01-26T21:15:56.495Z,-4.38
2023-01-26T21:18:29.355Z,-4.37
2023-01-26T21:21:05.749Z,-4.41
2023-01-26T21:23:40.204Z,-4.45
2023-01-26T21:26:16.126Z,-4.46
2023-01-26T21:28:59.208Z,-4.49
2023-01-26T21:31:33.992Z,-4.58
2023-01-26T21:34:06.876Z,-4.62
2023-01-26T21:36:40.045Z,-4.62
2023-01-26T21:39:15.237Z,-4.64
2023-01-26T21:41:57.344Z,-4.66
2023-01-26T21:44:36.713Z,-4.70
2023-01-26T21:47:10.736Z,-4.75
2023-01-26T21:49:43.459Z,-4.77
2023-01-26T21:52:34.182Z,-4.78
2023-01-26T21:55:07.458Z,-4.81
2023-01-26T21:57:58.312Z,-4.78
2023-01-26T22:00:33.323Z,-4.74
2023-01-26T22:03:06.774Z,-4.78
2023-01-26T22:05:39.429Z,-4.78
2023-01-26T22:08:12.915Z,-4.79
2023-01-26T22:10:47.491Z,-4.85
2023-01-26T22:13:20.661Z,-4.92
2023-01-26T22:15:53.682Z,-4.98
2023-01-26T22:18:27.383Z,-5.01
2023-01-26T22:21:00.171Z,-5.04
2023-01-26T22:23:37.715Z,-5.07
2023-01-26T22:26:21.305Z,-5.09
2023-01-26T22:28:59.775Z,-5.06
2023-01-26T22:31:33.598Z,-5.08
2023-01-26T22:34:07.153Z,-5.10
2023-01-26T22:36:41.257Z,-5.03
2023-01-26T22:39:14.203Z,-4.94
2023-01-26T22:41:47.046Z,-4.87
2023-01-26T22:44:20.035Z,-4.87
2023-01-26T22:46:53.139Z,-4.87
2023-01-26T22:49:26.071Z,-4.85
2023-01-26T22:51:58.927Z,-4.85
2023-01-26T22:54:31.805Z,-4.86
2023-01-26T22:57:04.632Z,-4.88
2023-01-26T22:59:38.224Z,-4.89
2023-01-26T23:02:11.095Z,-4.92
2023-01-26T23:04:44.370Z,-4.94
2023-01-26T23:07:17.273Z,-4.95
2023-01-26T23:09:50.353Z,-4.97
2023-01-26T23:12:23.644Z,-5.07
2023-01-26T23:14:57.099Z,-5.10
2023-01-26T23:17:30.060Z,-5.08
2023-01-26T23:20:03.152Z,-5.06
2023-01-26T23:22:36.571Z,-5.07
2023-01-26T23:25:28.042Z,-5.06
2023-01-26T23:28:05.335Z,-5.07
2023-01-26T23:30:38.814Z,-5.09
2023-01-26T23:33:12.073Z,-5.09
2023-01-26T23:35:45.618Z,-5.11
2023-01-26T23:38:19.215Z,-5.12
2023-01-26T23:40:53.039Z,-5.16
2023-01-26T23:43:26.246Z,-5.17
2023-01-26T23:45:59.845Z,-5.15
2023-01-26T23:48:33.267Z,-5.17
2023-01-26T23:51:10.055Z,-5.24
2023-01-26T23:53:43.025Z,-5.25
2023-01-26T23:56:18.417Z,-5.27
2023-01-26T23:58:51.351Z,-5.36
